Time;durP1;ratioP1;P1;durP2;ratioP2;P2;SDS_P1;SDS_P2;PMS_P1;PMS_P2;Temp;Humidity;BMP_temperature;BMP_pressure;BME280_temperature;BME280_humidity;BME280_pressure;Samples;Min_cycle;Max_cycle;Signal;HPM_P1;HPM_P2
2023/04/22 00:01:07;;;;;;;15.73;9.53;;;10.70;97.30;;;10.76;62.20;94645.25;5077859;28;20468;-60
2023/04/22 00:03:34;;;;;;;17.90;9.70;;;10.70;97.20;;;10.78;62.26;94648.56;5076696;28;20494;-56
2023/04/22 00:06:02;;;;;;;14.63;9.83;;;10.70;97.50;;;10.82;62.59;94649.13;5071068;28;20485;-57
2023/04/22 00:08:30;;;;;;;15.83;8.87;;;10.70;97.50;;;10.83;62.35;94648.13;5074823;28;20588;-55
2023/04/22 00:10:58;;;;;;;9.90;8.83;;;10.70;97.50;;;10.84;62.23;94653.25;5077650;28;21144;-60
2023/04/22 00:13:26;;;;;;;12.40;9.80;;;10.80;97.50;;;10.85;61.91;94657.53;5077825;28;20589;-56
2023/04/22 00:15:53;;;;;;;15.33;8.83;;;10.80;97.70;;;10.86;61.96;94655.72;5075733;28;20467;-61
2023/04/22 00:18:20;;;;;;;23.33;9.40;;;10.80;97.50;;;10.87;61.74;94657.41;5078699;28;20993;-56
2023/04/22 00:20:48;;;;;;;13.03;8.40;;;10.80;97.40;;;10.86;61.78;94650.47;5073379;28;20479;-60
2023/04/22 00:23:15;;;;;;;12.57;9.37;;;10.80;97.30;;;10.85;62.20;94654.91;5075206;28;20493;-60
2023/04/22 00:25:44;;;;;;;11.23;8.10;;;10.80;97.50;;;10.85;62.12;94654.09;5075034;28;20485;-61
2023/04/22 00:28:11;;;;;;;14.17;7.47;;;10.80;97.50;;;10.84;62.40;94657.69;5071764;28;20468;-56
2023/04/22 00:30:38;;;;;;;12.97;9.03;;;10.70;97.60;;;10.81;61.73;94663.25;5075215;28;20470;-57
2023/04/22 00:33:06;;;;;;;14.20;8.87;;;10.70;97.20;;;10.77;61.98;94658.28;5069771;28;20474;-60
2023/04/22 00:35:33;;;;;;;13.00;8.07;;;10.70;97.30;;;10.74;61.69;94658.56;5073467;28;20479;-56
2023/04/22 00:38:00;;;;;;;15.00;7.70;;;10.70;97.00;;;10.70;61.22;94659.81;5076052;28;20912;-60
2023/04/22 00:40:27;;;;;;;14.20;8.37;;;10.60;96.90;;;10.68;61.47;94658.31;5071469;28;20494;-56
2023/04/22 00:42:56;;;;;;;13.23;8.70;;;10.60;96.90;;;10.66;61.50;94661.09;5068938;28;20509;-60
2023/04/22 00:45:23;;;;;;;12.00;8.70;;;10.60;97.10;;;10.63;62.32;94661.41;5070582;28;20517;-56
2023/04/22 00:47:51;;;;;;;11.70;8.43;;;10.60;97.40;;;10.58;61.64;94658.34;5073536;28;20474;-57
2023/04/22 00:50:18;;;;;;;9.97;8.73;;;10.60;97.20;;;10.54;61.54;94657.00;5070822;28;20466;-60
2023/04/22 00:52:45;;;;;;;9.70;7.43;;;10.50;97.40;;;10.50;61.69;94663.50;5075865;28;21098;-61
2023/04/22 00:55:13;;;;;;;11.67;7.47;;;10.40;97.00;;;10.44;61.73;94662.31;5073455;28;20466;-57
2023/04/22 00:57:40;;;;;;;11.47;8.13;;;10.40;97.10;;;10.40;61.72;94658.31;5071692;28;20466;-56
2023/04/22 01:00:10;;;;;;;11.27;7.90;;;10.40;97.20;;;10.35;61.64;94658.72;5069312;28;20470;-56
2023/04/22 01:02:37;;;;;;;16.60;8.50;;;10.30;97.30;;;10.33;62.38;94665.09;5070881;28;20490;-57
2023/04/22 01:05:08;;;;;;;19.37;10.20;;;10.30;97.20;;;10.30;61.75;94660.09;5073748;28;20461;-59
2023/04/22 01:07:35;;;;;;;19.10;11.50;;;10.20;97.20;;;10.25;61.86;94659.69;5070499;28;20553;-56
2023/04/22 01:10:03;;;;;;;22.77;12.13;;;10.20;97.20;;;10.22;61.93;94664.28;5076698;28;20535;-61
2023/04/22 01:12:30;;;;;;;18.93;11.43;;;10.20;97.20;;;10.19;62.08;94659.31;5075073;28;21185;-56
2023/04/22 01:14:57;;;;;;;16.97;11.20;;;10.20;97.50;;;10.16;61.90;94649.09;5077742;28;21585;-58
2023/04/22 01:17:26;;;;;;;17.00;9.87;;;10.10;97.40;;;10.14;62.14;94660.69;5073187;28;20478;-60
2023/04/22 01:19:54;;;;;;;14.40;9.00;;;10.10;97.60;;;10.09;62.17;94660.31;5074161;28;20473;-59
2023/04/22 01:22:21;;;;;;;14.00;8.07;;;10.10;97.80;;;10.07;62.15;94662.22;5075346;28;20480;-56
2023/04/22 01:24:50;;;;;;;21.07;9.00;;;10.00;97.80;;;10.04;62.32;94661.56;5072307;28;20475;-56
2023/04/22 01:27:17;;;;;;;10.50;8.43;;;10.00;97.90;;;10.01;62.51;94672.34;5073172;28;20547;-56
2023/04/22 01:29:44;;;;;;;11.30;7.10;;;10.00;98.00;;;9.97;62.62;94655.19;5075276;28;20470;-56
2023/04/22 01:32:12;;;;;;;11.73;7.97;;;9.90;98.40;;;9.95;62.79;94665.03;5072102;28;20471;-59
2023/04/22 01:34:39;;;;;;;15.30;7.53;;;9.90;98.60;;;9.93;62.62;94664.34;5077799;28;20454;-57
2023/04/22 01:37:07;;;;;;;10.03;7.23;;;9.90;98.60;;;9.91;62.79;94665.44;5070444;28;20478;-60
2023/04/22 01:39:34;;;;;;;8.50;6.70;;;9.90;98.70;;;9.87;62.56;94668.34;5076032;28;20450;-60
2023/04/22 01:42:03;;;;;;;9.87;7.80;;;9.90;98.70;;;9.86;62.74;94665.88;5070913;28;20470;-57
2023/04/22 01:44:30;;;;;;;9.80;7.63;;;9.80;98.70;;;9.83;63.11;94664.34;5077447;28;20496;-57
2023/04/22 01:46:57;;;;;;;10.40;7.83;;;9.80;98.90;;;9.81;62.77;94660.22;5072568;28;20550;-59
2023/04/22 01:49:25;;;;;;;10.17;8.00;;;9.80;98.90;;;9.80;62.88;94658.53;5071300;28;20478;-60
2023/04/22 01:51:52;;;;;;;13.53;9.00;;;9.80;99.00;;;9.79;63.21;94662.13;5077866;28;20480;-56
2023/04/22 01:54:19;;;;;;;10.20;8.33;;;9.70;99.00;;;9.80;62.75;94655.91;5069899;28;20478;-62
2023/04/22 01:56:51;;;;;;;12.07;8.97;;;9.80;99.00;;;9.78;62.86;94656.06;5074768;28;20462;-57
2023/04/22 01:59:20;;;;;;;9.60;8.30;;;9.80;99.00;;;9.77;63.04;94654.41;5079202;28;20470;-60
2023/04/22 02:01:47;;;;;;;18.40;7.90;;;9.70;99.10;;;9.78;63.01;94657.88;5075443;28;20470;-61
2023/04/22 02:04:15;;;;;;;11.40;8.53;;;9.70;99.10;;;9.79;63.01;94656.88;5078840;28;20497;-61
2023/04/22 02:06:42;;;;;;;12.67;7.97;;;9.70;99.30;;;9.80;63.10;94658.53;5074476;28;20481;-57
2023/04/22 02:09:09;;;;;;;12.53;8.77;;;9.70;99.30;;;9.82;63.29;94652.19;5074441;28;20879;-57
2023/04/22 02:11:36;;;;;;;9.90;7.60;;;9.80;99.40;;;9.83;63.31;94647.75;5074779;28;20478;-55
2023/04/22 02:14:04;;;;;;;12.30;8.40;;;9.80;99.40;;;9.84;63.51;94652.06;5077443;28;20485;-57
2023/04/22 02:16:33;;;;;;;9.43;7.33;;;9.80;99.60;;;9.87;63.35;94651.78;5078787;28;20496;-56
2023/04/22 02:19:00;;;;;;;11.27;7.70;;;9.80;99.60;;;9.89;63.73;94652.44;5076486;28;20482;-60
2023/04/22 02:21:30;;;;;;;11.63;7.00;;;9.80;99.90;;;9.93;63.52;94653.84;5076377;28;20798;-56
2023/04/22 02:23:58;;;;;;;14.93;9.40;;;9.90;99.80;;;9.96;63.43;94650.94;5074391;28;20555;-57
2023/04/22 02:26:25;;;;;;;12.80;8.40;;;9.90;99.70;;;9.99;63.51;94655.91;5073743;28;21210;-57
2023/04/22 02:28:52;;;;;;;9.37;7.37;;;9.90;99.80;;;10.02;63.66;94649.50;5076340;28;21070;-61
2023/04/22 02:31:19;;;;;;;9.33;7.73;;;10.00;99.40;;;10.06;63.43;94650.91;5075710;28;20473;-55
2023/04/22 02:33:48;;;;;;;11.07;8.03;;;10.00;99.40;;;10.08;63.48;94651.56;5075827;28;20801;-60
2023/04/22 02:36:16;;;;;;;10.23;7.37;;;10.00;99.30;;;10.11;63.60;94651.28;5077755;28;20473;-60
2023/04/22 02:38:43;;;;;;;14.60;8.03;;;10.00;99.30;;;10.12;63.44;94652.13;5078317;28;20536;-57
2023/04/22 02:41:10;;;;;;;12.90;8.57;;;10.00;99.30;;;10.13;63.28;94659.03;5077138;28;20578;-55
2023/04/22 02:43:37;;;;;;;14.23;8.37;;;10.10;99.20;;;10.13;63.59;94656.41;5078881;28;20500;-57
2023/04/22 02:46:05;;;;;;;12.53;8.47;;;10.10;99.70;;;10.12;63.14;94655.59;5077522;28;20479;-60
2023/04/22 02:48:32;;;;;;;14.73;8.77;;;10.10;99.20;;;10.09;63.03;94658.50;5078460;28;20470;-61
2023/04/22 02:51:01;;;;;;;14.10;8.30;;;10.10;99.00;;;10.05;63.24;94663.22;5079063;28;20911;-59
2023/04/22 02:53:29;;;;;;;16.40;8.90;;;10.00;99.00;;;10.05;63.09;94668.47;5075877;28;20477;-61
2023/04/22 02:55:57;;;;;;;14.00;9.63;;;10.00;99.00;;;10.04;63.06;94661.56;5073402;28;20485;-60
2023/04/22 02:58:25;;;;;;;11.13;8.90;;;10.00;98.90;;;10.00;63.31;94670.66;5076356;28;20576;-60
2023/04/22 03:00:52;;;;;;;13.20;9.00;;;10.00;99.10;;;10.00;62.96;94672.47;5080374;28;20545;-56
2023/04/22 03:03:19;;;;;;;11.70;8.33;;;9.90;99.60;;;9.96;62.96;94669.31;5076148;28;20502;-57
2023/04/22 03:05:46;;;;;;;15.10;9.03;;;9.90;99.50;;;9.93;63.11;94664.34;5077746;28;20523;-60
2023/04/22 03:08:15;;;;;;;12.00;7.90;;;9.90;99.60;;;9.91;63.15;94668.88;5077076;28;20471;-56
2023/04/22 03:10:42;;;;;;;15.10;9.00;;;9.80;99.50;;;9.90;63.44;94671.66;5075871;28;20470;-56
2023/04/22 03:13:10;;;;;;;8.63;7.53;;;9.80;99.70;;;9.88;63.17;94674.44;5077004;28;20485;-60
2023/04/22 03:15:37;;;;;;;19.87;7.87;;;9.80;99.70;;;9.89;63.53;94677.91;5075206;28;20968;-58
2023/04/22 03:18:04;;;;;;;13.70;9.17;;;9.80;99.90;;;9.88;63.59;94677.06;5075346;28;20485;-56
2023/04/22 03:20:32;;;;;;;9.80;8.40;;;9.80;99.90;;;9.86;63.58;94671.94;5076917;28;21023;-60
2023/04/22 03:22:59;;;;;;;19.37;8.60;;;9.80;99.90;;;9.87;63.40;94685.91;5079850;28;20478;-60
2023/04/22 03:25:28;;;;;;;11.10;7.87;;;9.80;99.90;;;9.87;63.60;94676.22;5075663;28;20452;-57
2023/04/22 03:27:55;;;;;;;12.00;8.60;;;9.80;99.90;;;9.87;63.55;94683.28;5075241;28;20587;-57
2023/04/22 03:30:23;;;;;;;14.50;8.23;;;9.80;99.90;;;9.87;64.04;94675.41;5077665;28;20940;-55
2023/04/22 03:32:52;;;;;;;7.67;6.83;;;9.80;99.90;;;9.85;63.96;94683.44;5076015;28;20486;-60
2023/04/22 03:35:19;;;;;;;14.70;8.13;;;9.80;99.90;;;9.84;63.76;94683.56;5073239;28;20473;-56
2023/04/22 03:37:47;;;;;;;10.53;7.37;;;9.80;99.90;;;9.84;63.87;94684.41;5075363;28;20489;-60
2023/04/22 03:40:14;;;;;;;15.20;8.07;;;9.80;99.90;;;9.81;63.88;94682.03;5072880;28;20479;-56
2023/04/22 03:42:43;;;;;;;10.00;6.90;;;9.80;99.90;;;9.83;63.78;94689.78;5071246;28;20995;-60
2023/04/22 03:45:11;;;;;;;17.80;8.10;;;9.80;99.90;;;9.82;63.73;94686.34;5072467;28;20512;-60
2023/04/22 03:47:38;;;;;;;8.50;6.70;;;9.80;99.90;;;9.83;63.55;94690.59;5077058;28;20482;-61
2023/04/22 03:50:07;;;;;;;13.00;8.10;;;9.80;99.90;;;9.84;63.76;94691.47;5073189;28;20471;-61
2023/04/22 03:52:34;;;;;;;25.13;9.50;;;9.80;99.90;;;9.86;63.68;94694.75;5076510;28;20467;-61
2023/04/22 03:55:01;;;;;;;16.97;9.00;;;9.80;99.90;;;9.87;64.09;94704.31;5074291;28;20462;-60
2023/04/22 03:57:28;;;;;;;10.77;8.33;;;9.80;99.90;;;9.86;63.91;94702.63;5074726;28;20475;-61
2023/04/22 03:59:57;;;;;;;11.40;8.40;;;9.80;99.90;;;9.88;63.91;94703.31;5073177;28;20450;-60
2023/04/22 04:02:24;;;;;;;13.73;8.10;;;9.80;99.90;;;9.89;63.94;94698.91;5076793;28;20520;-56
2023/04/22 04:04:52;;;;;;;17.93;7.63;;;9.80;99.90;;;9.89;63.69;94705.00;5074922;28;20627;-57
2023/04/22 04:07:19;;;;;;;15.20;9.17;;;9.90;99.90;;;9.90;63.82;94706.66;5077957;28;20466;-61
2023/04/22 04:09:46;;;;;;;11.90;9.10;;;9.90;99.90;;;9.92;63.85;94709.97;5076087;28;21044;-57
2023/04/22 04:12:14;;;;;;;21.13;8.93;;;9.90;99.90;;;9.94;63.69;94707.19;5078616;28;20971;-56
2023/04/22 04:14:41;;;;;;;18.43;9.67;;;9.90;99.90;;;9.94;63.62;94704.56;5067922;28;20493;-57
2023/04/22 04:17:12;;;;;;;16.63;9.37;;;9.90;99.90;;;9.94;63.71;94708.00;5075575;28;20986;-56
2023/04/22 04:19:40;;;;;;;10.97;8.73;;;9.90;99.90;;;9.95;63.60;94711.50;5072910;28;21163;-56
2023/04/22 04:22:08;;;;;;;18.90;8.27;;;9.90;99.90;;;9.96;63.08;94710.50;5075207;28;21087;-57
2023/04/22 04:24:40;;;;;;;10.53;8.00;;;9.90;99.70;;;9.95;62.87;94716.75;5074333;28;20586;-58
2023/04/22 04:27:08;;;;;;;16.00;8.20;;;9.90;99.60;;;9.95;62.81;94722.00;5071998;28;20481;-61
2023/04/22 04:29:35;;;;;;;18.93;7.80;;;9.90;99.50;;;9.94;62.86;94721.16;5073113;28;21035;-59
2023/04/22 04:32:03;;;;;;;11.80;7.20;;;9.90;99.50;;;9.96;62.71;94719.22;5072247;28;20825;-60
2023/04/22 04:34:33;;;;;;;16.60;8.43;;;9.90;99.50;;;10.00;62.68;94725.84;5079269;28;20944;-60
2023/04/22 04:37:00;;;;;;;14.33;8.37;;;10.00;98.90;;;10.03;62.77;94728.19;5074086;28;20999;-57
2023/04/22 04:39:28;;;;;;;8.37;6.90;;;10.00;98.90;;;10.05;62.62;94734.16;5078697;28;20473;-56
2023/04/22 04:41:57;;;;;;;10.63;7.80;;;10.00;98.80;;;10.05;62.27;94730.69;5076151;28;20964;-60
2023/04/22 04:44:26;;;;;;;17.83;7.93;;;10.00;98.70;;;10.10;62.27;94738.16;5075844;28;20500;-54
2023/04/22 04:46:54;;;;;;;9.00;6.67;;;10.00;98.80;;;10.11;62.87;94743.25;5078919;28;20501;-58
2023/04/22 04:49:22;;;;;;;7.13;6.23;;;10.10;98.80;;;10.13;62.40;94743.13;5073029;28;20575;-56
2023/04/22 04:51:50;;;;;;;7.00;5.90;;;10.10;98.70;;;10.18;62.18;94739.13;5072782;28;20453;-56
2023/04/22 04:54:18;;;;;;;8.90;7.20;;;10.10;98.70;;;10.23;62.39;94741.31;5077573;28;20465;-60
2023/04/22 04:56:45;;;;;;;6.20;5.70;;;10.20;99.10;;;10.29;62.34;94746.03;5072954;28;20463;-60
2023/04/22 04:59:12;;;;;;;9.50;6.63;;;10.20;98.90;;;10.33;62.34;94755.31;5073335;28;20454;-60
2023/04/22 05:01:40;;;;;;;9.83;7.00;;;10.20;98.80;;;10.35;62.34;94744.66;5073381;28;20497;-57
2023/04/22 05:04:07;;;;;;;16.17;7.40;;;10.30;98.90;;;10.37;62.30;94755.84;5072102;28;20490;-58
2023/04/22 05:06:34;;;;;;;11.37;7.60;;;10.30;98.80;;;10.37;62.18;94751.41;5068890;28;20471;-60
2023/04/22 05:09:03;;;;;;;11.13;7.23;;;10.30;98.60;;;10.43;62.13;94757.94;5073763;28;20543;-61
2023/04/22 05:11:30;;;;;;;9.30;7.50;;;10.40;98.60;;;10.51;62.20;94757.22;5072138;28;20515;-56
2023/04/22 05:13:58;;;;;;;11.47;8.27;;;10.40;98.60;;;10.57;62.25;94762.72;5070099;28;20487;-60
2023/04/22 05:16:25;;;;;;;9.10;7.47;;;10.50;98.80;;;10.68;62.08;94759.09;5075408;28;20478;-57
2023/04/22 05:18:52;;;;;;;13.60;8.27;;;10.60;98.70;;;10.77;61.83;94758.25;5070187;28;20474;-60
2023/04/22 05:21:20;;;;;;;17.83;9.60;;;10.70;98.50;;;10.85;61.67;94764.59;5070770;28;20466;-57
2023/04/22 05:23:47;;;;;;;9.73;8.73;;;10.70;98.50;;;10.92;61.57;94763.03;5071836;28;22453;-57
2023/04/22 05:26:18;;;;;;;11.20;8.57;;;10.80;98.50;;;11.04;61.62;94758.41;5069778;28;20528;-61
2023/04/22 05:28:45;;;;;;;15.50;8.67;;;10.90;98.60;;;11.20;61.50;94758.63;5074602;28;20895;-58
2023/04/22 05:31:13;;;;;;;9.30;8.00;;;11.00;98.40;;;11.39;61.22;94762.94;5073578;28;21449;-60
2023/04/22 05:33:40;;;;;;;16.17;7.30;;;11.20;98.30;;;11.59;60.36;94768.13;5070838;28;20990;-57
2023/04/22 05:36:08;;;;;;;10.67;6.67;;;11.40;97.80;;;11.79;60.06;94764.34;5075012;28;20473;-61
2023/04/22 05:38:35;;;;;;;12.63;7.70;;;11.60;97.50;;;11.97;59.39;94763.56;5079473;28;20470;-60
2023/04/22 05:41:02;;;;;;;6.93;6.23;;;11.80;97.00;;;12.16;59.24;94766.03;5076647;28;20658;-56
2023/04/22 05:43:31;;;;;;;15.30;5.80;;;11.90;96.80;;;12.40;58.64;94767.22;5074783;28;20532;-61
2023/04/22 05:45:58;;;;;;;6.07;4.90;;;12.10;96.60;;;12.65;58.30;94764.75;5076767;28;20498;-58
2023/04/22 05:48:26;;;;;;;5.20;4.70;;;12.40;96.30;;;12.89;57.66;94764.88;5070571;28;20474;-61
2023/04/22 05:50:54;;;;;;;8.00;5.50;;;12.60;95.80;;;13.14;57.15;94770.28;5072681;28;20462;-57
2023/04/22 05:53:21;;;;;;;6.57;5.97;;;12.90;95.50;;;13.38;56.79;94771.41;5072384;28;20542;-58
2023/04/22 05:55:48;;;;;;;8.00;6.00;;;13.10;95.10;;;13.60;56.51;94770.84;5077125;28;20473;-61
2023/04/22 05:58:16;;;;;;;10.57;6.80;;;13.30;94.80;;;13.83;55.44;94764.09;5075564;28;20470;-61
2023/04/22 06:00:45;;;;;;;6.37;5.77;;;13.50;94.70;;;14.06;55.58;94762.47;5076175;28;20501;-61
2023/04/22 06:03:12;;;;;;;16.50;6.07;;;13.70;94.20;;;14.30;54.91;94764.31;5073453;28;20477;-60
2023/04/22 06:05:40;;;;;;;12.60;6.80;;;14.00;93.70;;;14.49;54.30;94762.34;5077667;28;20509;-62
2023/04/22 06:08:07;;;;;;;7.23;5.87;;;14.10;93.20;;;14.69;54.34;94758.38;5078110;28;20475;-63
2023/04/22 06:10:35;;;;;;;8.60;6.17;;;14.30;92.90;;;14.93;53.99;94761.94;5078877;28;20471;-62
2023/04/22 06:13:02;;;;;;;10.50;6.10;;;14.50;92.70;;;15.15;53.47;94754.28;5076071;28;20470;-58
2023/04/22 06:15:29;;;;;;;11.90;7.80;;;14.80;92.30;;;15.33;53.11;94754.88;5080176;28;20986;-58
2023/04/22 06:17:58;;;;;;;6.30;5.80;;;15.00;92.00;;;15.48;52.85;94757.63;5076260;28;20470;-62
2023/04/22 06:20:26;;;;;;;16.83;6.60;;;15.10;91.50;;;15.62;52.17;94763.22;5072902;28;20454;-61
2023/04/22 06:22:53;;;;;;;16.67;8.17;;;15.20;91.30;;;15.77;52.35;94767.63;5078111;28;21012;-62
2023/04/22 06:25:21;;;;;;;9.37;6.50;;;15.40;91.30;;;15.98;51.99;94766.16;5071528;28;20998;-58
2023/04/22 06:27:48;;;;;;;13.93;6.90;;;15.60;90.90;;;16.21;52.19;94763.53;5070554;28;20466;-58
2023/04/22 06:30:16;;;;;;;9.47;7.03;;;15.80;91.10;;;16.50;52.09;94756.69;5078020;28;20476;-60
2023/04/22 06:32:43;;;;;;;8.17;6.00;;;16.10;91.10;;;16.81;51.12;94766.34;5072109;28;20495;-60
2023/04/22 06:35:12;;;;;;;6.60;6.00;;;16.40;90.30;;;17.09;51.42;94768.44;5076710;28;20486;-57
2023/04/22 06:37:39;;;;;;;10.30;5.77;;;16.70;90.20;;;17.37;51.26;94763.28;5078882;28;20575;-57
2023/04/22 06:40:08;;;;;;;17.50;5.53;;;16.90;90.30;;;17.67;50.74;94760.59;5076870;28;20536;-57
2023/04/22 06:42:36;;;;;;;7.03;5.73;;;17.20;89.50;;;17.91;49.54;94754.97;5080431;28;20471;-57
2023/04/22 06:45:04;;;;;;;8.73;5.40;;;17.50;86.90;;;18.08;48.80;94752.09;5079249;28;20511;-61
2023/04/22 06:47:31;;;;;;;8.20;5.70;;;17.70;85.90;;;18.26;49.43;94755.13;5070373;28;20486;-64
2023/04/22 06:49:58;;;;;;;7.80;5.70;;;17.80;85.50;;;18.39;48.51;94753.59;5075027;28;20462;-57
2023/04/22 06:52:27;;;;;;;5.80;5.20;;;18.00;84.00;;;18.57;49.07;94761.13;5077871;28;20467;-60
2023/04/22 06:54:54;;;;;;;9.60;5.00;;;18.20;84.90;;;18.79;48.14;94759.25;5070860;28;20459;-58
2023/04/22 06:57:22;;;;;;;10.43;5.80;;;18.30;83.70;;;19.02;47.98;94760.88;5075716;28;20473;-62
2023/04/22 06:59:49;;;;;;;7.90;5.70;;;18.50;83.20;;;19.30;47.96;94764.34;5075134;28;20462;-58
2023/04/22 07:02:17;;;;;;;6.30;5.13;;;18.80;83.70;;;19.58;46.86;94776.81;5075427;28;20470;-61
2023/04/22 07:04:45;;;;;;;8.53;6.27;;;19.10;80.50;;;19.78;46.87;94762.75;5077747;28;20579;-59
2023/04/22 07:07:12;;;;;;;11.87;5.77;;;19.30;79.70;;;20.00;45.96;94764.25;5072699;28;20482;-61
2023/04/22 07:09:41;;;;;;;6.33;5.60;;;19.60;78.40;;;20.10;45.22;94777.22;5071288;28;20497;-57
2023/04/22 07:12:08;;;;;;;7.70;5.30;;;19.70;75.70;;;20.16;45.21;94768.41;5075791;28;20590;-61
2023/04/22 07:14:35;;;;;;;7.17;5.63;;;19.80;76.30;;;20.32;45.00;94772.53;5079368;28;20477;-58
2023/04/22 07:17:02;;;;;;;7.37;6.17;;;19.90;74.90;;;20.48;44.11;94774.03;5074243;28;20474;-56
2023/04/22 07:19:30;;;;;;;6.70;5.00;;;20.00;73.30;;;20.67;45.37;94763.59;5075962;28;20459;-60
2023/04/22 07:21:57;;;;;;;10.20;5.00;;;20.20;75.10;;;20.89;44.53;94762.34;5073485;28;20490;-58
2023/04/22 07:24:24;;;;;;;5.07;4.60;;;20.50;73.80;;;21.14;44.41;94762.50;5077404;28;20466;-58
2023/04/22 07:26:53;;;;;;;5.77;5.23;;;20.70;73.70;;;21.42;43.83;94768.63;5076161;28;20566;-60
2023/04/22 07:29:21;;;;;;;5.80;5.27;;;21.00;72.30;;;21.69;44.00;94763.22;5075881;28;20486;-57
2023/04/22 07:31:48;;;;;;;12.30;5.20;;;21.20;72.20;;;22.00;43.29;94767.84;5071950;28;20481;-58
2023/04/22 07:34:16;;;;;;;5.10;4.60;;;21.50;71.50;;;22.34;41.90;94760.50;5070060;28;20586;-60
2023/04/22 07:36:43;;;;;;;7.33;4.67;;;21.80;68.70;;;22.65;41.51;94761.50;5071983;28;20473;-59
2023/04/22 07:39:11;;;;;;;4.60;3.40;;;22.10;66.70;;;22.86;41.75;94763.81;5070114;28;20454;-59
2023/04/22 07:41:38;;;;;;;5.43;3.93;;;22.40;66.80;;;23.08;40.71;94761.59;5075597;28;20467;-61
2023/04/22 07:44:07;;;;;;;8.00;3.93;;;22.60;65.80;;;23.34;40.28;94758.88;5073318;28;20481;-63
2023/04/22 07:46:34;;;;;;;8.50;4.10;;;22.80;64.30;;;;;;5070479;28;20513;-58
2023/04/22 07:49:01;;;;;;;6.27;4.37;;;23.00;62.40;;;23.52;39.34;94758.88;5074421;28;20480;-58
2023/04/22 07:51:28;;;;;;;4.03;3.63;;;23.10;61.50;;;23.57;39.19;94760.91;5074296;28;20561;-61
2023/04/22 07:53:56;;;;;;;4.00;3.70;;;23.10;59.90;;;23.57;38.91;94764.41;5074672;28;20458;-58
2023/04/22 07:56:23;;;;;;;7.70;5.23;;;23.10;59.50;;;23.60;38.97;94755.09;5069991;28;20489;-59
2023/04/22 07:58:50;;;;;;;4.07;3.80;;;23.10;59.50;;;23.68;38.71;94759.34;5072634;28;20485;-62
2023/04/22 08:01:19;;;;;;;6.73;4.10;;;23.20;59.50;;;23.80;37.80;94760.22;5071519;28;20478;-60
2023/04/22 08:03:46;;;;;;;9.87;4.07;;;23.30;58.50;;;23.78;37.34;94754.25;5068461;28;21071;-57
2023/04/22 08:06:14;;;;;;;7.23;3.70;;;23.40;56.50;;;23.81;37.38;94745.72;5072137;28;20481;-57
2023/04/22 08:08:41;;;;;;;9.50;3.30;;;23.40;56.30;;;23.91;37.27;94753.31;5066192;28;20475;-57
2023/04/22 08:11:08;;;;;;;5.13;3.30;;;23.60;56.30;;;24.16;37.64;94750.50;5074982;28;20458;-59
2023/04/22 08:13:35;;;;;;;5.30;3.67;;;23.80;56.90;;;24.60;36.32;94744.94;5068238;28;20477;-57
2023/04/22 08:16:03;;;;;;;5.83;3.60;;;24.20;56.30;;;25.03;35.79;94743.81;5068758;28;20478;-59
2023/04/22 08:18:32;;;;;;;8.63;4.37;;;24.60;56.10;;;25.37;35.48;94744.88;5071216;28;20510;-61
2023/04/22 08:20:59;;;;;;;10.33;4.10;;;25.00;55.40;;;25.63;35.19;94739.25;5071048;28;20490;-60
2023/04/22 08:23:26;;;;;;;12.57;4.30;;;25.30;53.90;;;25.82;35.13;94739.91;5067282;28;20481;-61
2023/04/22 08:25:54;;;;;;;7.63;3.63;;;25.60;53.50;;;25.89;33.77;94737.91;5067460;28;20591;-57
2023/04/22 08:28:21;;;;;;;8.30;4.10;;;25.60;52.10;;;25.81;34.10;94739.09;5072498;28;20997;-63
2023/04/22 08:30:48;;;;;;;5.50;3.47;;;25.60;52.20;;;25.86;33.63;94735.69;5070667;28;20539;-62
2023/04/22 08:33:16;;;;;;;13.60;4.83;;;25.50;51.30;;;25.65;33.53;94731.75;5064901;28;20489;-67
2023/04/22 08:35:45;;;;;;;9.73;4.13;;;25.40;50.70;;;25.52;33.49;94725.56;5070826;28;20502;-58
2023/04/22 08:38:12;;;;;;;8.17;4.40;;;25.20;50.90;;;25.51;33.58;94726.59;5072093;28;20500;-58
2023/04/22 08:40:41;;;;;;;4.53;4.13;;;25.10;51.20;;;25.45;34.17;94714.09;5076095;28;20438;-63
2023/04/22 08:43:08;;;;;;;12.00;4.80;;;25.10;50.90;;;25.47;33.64;94725.47;5073869;28;20470;-58
2023/04/22 08:45:37;;;;;;;8.80;3.70;;;25.00;51.10;;;25.55;33.76;94718.91;5074425;28;20505;-61
2023/04/22 08:48:05;;;;;;;8.73;3.93;;;25.10;51.20;;;25.74;34.12;94722.25;5074819;28;20473;-61
2023/04/22 08:50:32;;;;;;;8.13;4.00;;;25.20;51.40;;;25.94;33.83;94713.75;5069635;28;20482;-65
2023/04/22 08:53:01;;;;;;;6.10;3.80;;;25.40;51.60;;;26.04;33.01;94716.69;5071202;28;20512;-62
2023/04/22 08:55:29;;;;;;;6.63;4.10;;;25.60;50.10;;;26.10;32.39;94715.72;5069863;28;20474;-57
2023/04/22 08:57:56;;;;;;;6.43;3.57;;;25.70;49.30;;;26.12;33.10;94708.19;5077971;28;20656;-63
2023/04/22 09:00:24;;;;;;;11.07;3.67;;;25.70;50.00;;;26.33;33.46;94705.88;5071147;28;20466;-63
2023/04/22 09:02:52;;;;;;;7.47;3.40;;;25.80;50.00;;;26.65;33.23;94705.34;5075352;28;20492;-58
2023/04/22 09:05:19;;;;;;;9.83;3.57;;;26.10;50.20;;;26.93;32.41;94699.06;5071002;28;21386;-63
2023/04/22 09:07:46;;;;;;;6.03;3.47;;;26.40;49.70;;;27.14;32.18;94707.47;5074240;28;20992;-63
2023/04/22 09:10:15;;;;;;;5.77;3.67;;;26.60;48.70;;;27.27;31.66;94706.31;5074712;28;20454;-64
2023/04/22 09:12:42;;;;;;;5.73;4.13;;;26.80;48.00;;;27.47;32.07;94700.41;5070907;28;20500;-58
2023/04/22 09:15:11;;;;;;;6.17;3.80;;;27.00;48.70;;;27.76;32.34;94708.31;5077175;28;20538;-62
2023/04/22 09:17:40;;;;;;;9.83;4.00;;;27.20;48.80;;;28.06;31.77;94707.91;5070886;28;20481;-63
2023/04/22 09:20:08;;;;;;;6.23;3.97;;;27.50;48.10;;;28.22;31.45;94700.75;5075930;28;20476;-59
2023/04/22 09:22:40;;;;;;;7.50;3.53;;;27.70;47.60;;;28.37;30.50;94698.19;5074967;28;20533;-57
2023/04/22 09:25:16;;;;;;;6.70;3.63;;;27.80;46.70;;;28.57;30.47;94697.56;5075697;28;20481;-62
2023/04/22 09:27:46;;;;;;;14.27;3.90;;;28.00;46.50;;;28.77;30.70;94691.56;5075285;28;20554;-63
2023/04/22 09:30:13;;;;;;;6.10;3.33;;;28.20;46.10;;;28.96;28.78;94694.66;5073525;28;20536;-58
2023/04/22 09:32:41;;;;;;;12.57;4.63;;;28.50;44.20;;;29.07;29.45;94686.63;5072549;28;20475;-58
2023/04/22 09:35:09;;;;;;;8.00;4.30;;;28.60;45.00;;;29.09;29.00;94692.59;5071686;28;20466;-58
2023/04/22 09:37:36;;;;;;;5.67;4.17;;;28.70;43.00;;;29.00;29.29;94683.31;5073716;28;20572;-63
2023/04/22 09:40:04;;;;;;;4.77;3.97;;;28.60;43.60;;;29.11;29.08;94677.72;5077366;28;20469;-63
2023/04/22 09:42:33;;;;;;;8.23;3.60;;;28.60;43.40;;;29.24;29.37;94679.16;5079435;28;20474;-64
2023/04/22 09:45:00;;;;;;;3.87;3.57;;;28.70;44.00;;;29.43;28.45;94681.44;5077594;28;20450;-62
2023/04/22 09:47:28;;;;;;;4.20;3.60;;;28.80;43.20;;;29.57;26.91;94677.16;5073283;28;20489;-57
2023/04/22 09:49:55;;;;;;;10.90;5.13;;;29.00;39.90;;;29.62;27.77;94679.91;5071815;28;20473;-57
2023/04/22 09:52:25;;;;;;;8.27;3.00;;;29.10;41.60;;;29.73;27.57;94669.94;5076000;28;20473;-57
2023/04/22 09:54:53;;;;;;;6.20;3.37;;;29.20;42.10;;;29.76;27.96;94677.53;5067178;28;20470;-58
2023/04/22 09:57:20;;;;;;;9.27;2.80;;;29.20;41.00;;;29.61;27.60;94677.47;5077186;28;21009;-56
2023/04/22 09:59:50;;;;;;;3.43;2.90;;;29.20;40.00;;;29.30;26.09;94677.31;5071627;28;20472;-62
2023/04/22 10:02:17;;;;;;;8.57;2.43;;;28.90;39.60;;;28.70;28.31;94676.59;5077271;28;20481;-64
2023/04/22 10:04:46;;;;;;;9.70;3.10;;;28.40;40.80;;;27.98;28.20;94675.88;5070912;28;20930;-63
2023/04/22 10:07:14;;;;;;;6.23;1.97;;;27.80;41.00;;;27.25;27.71;94673.31;5071338;28;20493;-55
2023/04/22 10:09:41;;;;;;;6.13;2.70;;;27.10;40.00;;;26.54;27.35;94663.06;5073914;28;20862;-55
2023/04/22 10:12:08;;;;;;;2.23;1.80;;;26.40;38.90;;;25.74;28.21;94663.78;5073135;28;20468;-57
2023/04/22 10:14:36;;;;;;;3.43;1.77;;;25.70;40.90;;;25.03;29.47;94669.28;5077337;28;20461;-56
2023/04/22 10:17:04;;;;;;;5.63;2.20;;;24.90;42.00;;;24.35;29.94;94670.59;5070989;28;20904;-56
2023/04/22 10:19:32;;;;;;;7.23;2.40;;;24.20;42.60;;;23.85;30.45;94662.88;5078219;28;20454;-64
2023/04/22 10:22:01;;;;;;;3.67;2.67;;;23.60;43.10;;;23.33;31.32;94650.72;5074998;28;20486;-55